Time;durP1;ratioP1;P1;durP2;ratioP2;P2;SDS_P1;SDS_P2;PMS_P1;PMS_P2;Temp;Humidity;BMP_temperature;BMP_pressure;BME280_temperature;BME280_humidity;BME280_pressure;Samples;Min_cycle;Max_cycle;Signal;HPM_P1;HPM_P2
2021/09/25 00:00:15;;;;;;;0.50;0.50;;;12.80;99.90;;;;;;4976254;28;20484;-80
2021/09/25 00:02:42;;;;;;;1.13;0.63;;;12.70;99.90;;;;;;4976274;28;20456;-80
2021/09/25 00:05:10;;;;;;;2.10;0.80;;;12.70;99.90;;;;;;4976305;28;20457;-80
2021/09/25 00:07:36;;;;;;;1.23;0.70;;;12.70;99.90;;;;;;4976174;28;20920;-80
2021/09/25 00:10:04;;;;;;;0.83;0.70;;;12.70;99.90;;;;;;4975658;28;20492;-80
2021/09/25 00:12:31;;;;;;;1.20;0.80;;;12.70;99.90;;;;;;4976133;28;20453;-80
2021/09/25 00:14:59;;;;;;;0.93;0.70;;;12.70;99.90;;;;;;4976076;28;20457;-80
2021/09/25 00:17:26;;;;;;;0.40;0.40;;;12.70;99.90;;;;;;4975917;28;20865;-80
2021/09/25 00:19:52;;;;;;;1.77;0.80;;;12.70;99.90;;;;;;4975824;28;20489;-80
2021/09/25 00:22:19;;;;;;;1.67;0.90;;;12.60;99.90;;;;;;4975627;28;20948;-80
2021/09/25 00:24:46;;;;;;;1.03;0.57;;;12.60;99.90;;;;;;4975939;28;20445;-80
2021/09/25 00:27:12;;;;;;;0.60;0.60;;;12.60;99.90;;;;;;4975918;28;20457;-80
2021/09/25 00:29:39;;;;;;;2.83;1.00;;;12.60;99.90;;;;;;4975800;28;20465;-80
2021/09/25 00:32:07;;;;;;;0.50;0.40;;;12.60;99.90;;;;;;4976042;28;20454;-80
2021/09/25 00:34:34;;;;;;;2.10;0.90;;;12.70;99.90;;;;;;4975722;28;20507;-80
2021/09/25 00:37:01;;;;;;;1.53;0.87;;;12.60;99.90;;;;;;4975697;28;20453;-80
2021/09/25 00:39:28;;;;;;;1.77;0.70;;;12.60;99.90;;;;;;4975507;28;20536;-80
2021/09/25 00:41:55;;;;;;;0.50;0.40;;;12.60;99.90;;;;;;4975857;28;20446;-80
2021/09/25 00:44:23;;;;;;;0.50;0.33;;;12.60;99.90;;;;;;4975584;28;20456;-80
2021/09/25 00:46:49;;;;;;;2.10;1.27;;;12.50;99.90;;;;;;4975553;28;20460;-80
2021/09/25 00:49:20;;;;;;;0.97;0.60;;;12.50;99.90;;;;;;4975386;28;20445;-80
2021/09/25 00:51:47;;;;;;;0.87;0.87;;;12.50;99.90;;;;;;4975430;28;20526;-80
2021/09/25 00:54:15;;;;;;;2.00;0.70;;;12.40;99.90;;;;;;4975392;28;20460;-80
2021/09/25 00:56:44;;;;;;;1.00;0.93;;;12.40;99.90;;;;;;4975348;28;20449;-80
2021/09/25 00:59:12;;;;;;;1.53;0.77;;;12.40;99.90;;;;;;4975026;28;20516;-80
2021/09/25 01:01:40;;;;;;;0.60;0.60;;;12.30;99.90;;;;;;4974985;28;20442;-80
2021/09/25 01:04:07;;;;;;;0.73;0.60;;;12.30;99.90;;;;;;4975210;28;20456;-80
2021/09/25 01:06:36;;;;;;;6.63;1.10;;;12.30;99.90;;;;;;4975140;28;20465;-80
2021/09/25 01:09:03;;;;;;;0.60;0.50;;;12.30;99.90;;;;;;4974672;28;20497;-80
2021/09/25 01:11:30;;;;;;;1.20;0.80;;;12.30;99.90;;;;;;4975102;28;20461;-80
2021/09/25 01:13:57;;;;;;;0.60;0.60;;;12.20;99.90;;;;;;4975061;28;20476;-80
2021/09/25 01:16:24;;;;;;;1.37;0.83;;;12.20;99.90;;;;;;4975025;28;20460;-80
2021/09/25 01:18:51;;;;;;;1.07;0.80;;;12.10;99.90;;;;;;4974448;28;20485;-80
2021/09/25 01:21:19;;;;;;;0.60;0.60;;;12.10;99.90;;;;;;4974846;28;20480;-80
2021/09/25 01:23:46;;;;;;;1.10;1.07;;;12.10;99.90;;;;;;4974881;28;20458;-80
2021/09/25 01:26:13;;;;;;;1.27;1.17;;;12.10;99.90;;;;;;4974828;28;20460;-80
2021/09/25 01:28:42;;;;;;;2.27;1.00;;;12.00;99.90;;;;;;4974846;28;20466;-80
2021/09/25 01:31:11;;;;;;;0.90;0.70;;;12.00;99.90;;;;;;4974743;28;20492;-80
2021/09/25 01:33:42;;;;;;;0.60;0.50;;;12.00;99.90;;;;;;4974521;28;21009;-80
2021/09/25 01:36:09;;;;;;;1.03;0.53;;;12.00;99.90;;;;;;4975625;28;20469;-80
2021/09/25 01:38:39;;;;;;;2.47;1.37;;;12.00;99.90;;;;;;4974619;28;20471;-80
2021/09/25 01:41:05;;;;;;;0.90;0.90;;;12.00;99.90;;;;;;4974876;28;20480;-80
2021/09/25 01:43:33;;;;;;;0.50;0.47;;;12.00;99.90;;;;;;4974653;28;20504;-80
2021/09/25 01:46:00;;;;;;;2.53;0.80;;;12.00;99.90;;;;;;4974690;28;20480;-80
2021/09/25 01:48:27;;;;;;;1.63;0.63;;;12.10;99.90;;;;;;4974604;28;20453;-80
2021/09/25 01:50:54;;;;;;;0.97;0.57;;;12.10;99.90;;;;;;4974315;28;20993;-80
2021/09/25 01:53:22;;;;;;;1.33;0.50;;;12.10;99.90;;;;;;4974545;28;20822;-80
2021/09/25 01:55:50;;;;;;;1.63;0.90;;;12.20;99.90;;;;;;4974235;28;20491;-80
2021/09/25 01:58:17;;;;;;;0.83;0.70;;;12.20;99.90;;;;;;4974531;28;20452;-80
2021/09/25 02:00:44;;;;;;;0.63;0.63;;;12.20;99.90;;;;;;4974020;28;20493;-80
2021/09/25 02:03:13;;;;;;;1.00;0.67;;;12.20;99.90;;;;;;4974496;28;20445;-80
2021/09/25 02:05:40;;;;;;;0.83;0.40;;;12.20;99.90;;;;;;4974511;28;20445;-80
2021/09/25 02:08:06;;;;;;;0.93;0.93;;;12.20;99.90;;;;;;4974268;28;20453;-81
2021/09/25 02:10:33;;;;;;;2.73;0.50;;;12.20;99.90;;;;;;4974099;28;20977;-80
2021/09/25 02:13:01;;;;;;;0.60;0.50;;;12.20;99.90;;;;;;4974437;28;20495;-80
2021/09/25 02:15:30;;;;;;;0.80;0.60;;;12.20;99.90;;;;;;4974401;28;20451;-80
2021/09/25 02:17:56;;;;;;;0.60;0.60;;;12.20;99.90;;;;;;4974361;28;20831;-80
2021/09/25 02:20:23;;;;;;;0.43;0.43;;;12.10;99.90;;;;;;4973851;28;20891;-80
2021/09/25 02:22:50;;;;;;;0.50;0.50;;;12.10;99.90;;;;;;4974297;28;20460;-80
2021/09/25 02:25:16;;;;;;;0.43;0.40;;;12.10;99.90;;;;;;4974254;28;20453;-80
2021/09/25 02:27:43;;;;;;;1.70;0.77;;;12.10;99.90;;;;;;4974526;28;20445;-80
2021/09/25 02:30:15;;;;;;;0.50;0.50;;;12.20;99.90;;;;;;4975601;28;20465;-80
2021/09/25 02:32:42;;;;;;;2.70;0.80;;;12.20;99.90;;;;;;4978266;28;20444;-80
2021/09/25 02:35:09;;;;;;;2.20;0.50;;;12.30;99.90;;;;;;4978004;28;20476;-80
2021/09/25 02:37:36;;;;;;;0.57;0.57;;;12.30;99.90;;;;;;4977843;28;20457;-80
2021/09/25 02:40:03;;;;;;;0.40;0.40;;;12.30;99.90;;;;;;4977731;28;20485;-80
2021/09/25 02:42:30;;;;;;;0.50;0.50;;;12.30;99.90;;;;;;4977502;28;20816;-80
2021/09/25 02:44:57;;;;;;;0.83;0.60;;;12.20;99.90;;;;;;4977717;28;20803;-80
2021/09/25 02:47:25;;;;;;;1.67;0.63;;;12.20;99.90;;;;;;4977696;28;20460;-80
2021/09/25 02:49:52;;;;;;;1.80;0.83;;;12.10;99.90;;;;;;4977602;28;20823;-80
2021/09/25 02:52:18;;;;;;;1.87;0.60;;;12.10;99.90;;;;;;4977646;28;20543;-79
2021/09/25 02:54:45;;;;;;;0.70;0.70;;;12.00;99.90;;;;;;4977555;28;20461;-80
2021/09/25 02:57:12;;;;;;;1.23;0.70;;;11.90;99.90;;;;;;4977561;28;20445;-80
2021/09/25 02:59:39;;;;;;;3.63;0.60;;;11.80;99.90;;;;;;4977767;28;20496;-80
2021/09/25 03:02:05;;;;;;;0.70;0.60;;;11.70;99.90;;;;;;4977191;28;20988;-80
2021/09/25 03:04:34;;;;;;;0.70;0.60;;;11.70;99.90;;;;;;4977408;28;20453;-80
2021/09/25 03:07:00;;;;;;;1.20;1.10;;;11.60;99.90;;;;;;4977354;28;20445;-80
2021/09/25 03:09:27;;;;;;;1.03;0.93;;;11.60;99.90;;;;;;4976987;28;20481;-80
2021/09/25 03:11:54;;;;;;;1.33;0.60;;;11.50;99.90;;;;;;4976981;28;20969;-80
2021/09/25 03:14:21;;;;;;;0.60;0.40;;;11.50;99.90;;;;;;4977184;28;20462;-80
2021/09/25 03:16:48;;;;;;;1.10;0.60;;;11.50;99.90;;;;;;4977162;28;20464;-80
2021/09/25 03:19:14;;;;;;;1.47;0.97;;;11.50;99.90;;;;;;4976753;28;20442;-80
2021/09/25 03:21:42;;;;;;;2.40;0.93;;;11.50;99.90;;;;;;4976746;28;20929;-80
2021/09/25 03:24:09;;;;;;;4.00;0.97;;;11.50;99.90;;;;;;4977054;28;20460;-80
2021/09/25 03:26:36;;;;;;;0.50;0.40;;;11.50;99.90;;;;;;4977018;28;20453;-80
2021/09/25 03:29:03;;;;;;;1.00;0.50;;;11.40;99.90;;;;;;4977653;28;20453;-80
2021/09/25 03:31:30;;;;;;;1.27;0.40;;;11.50;99.90;;;;;;4976899;28;20453;-80
2021/09/25 03:33:57;;;;;;;0.40;0.37;;;11.40;99.90;;;;;;4976851;28;20457;-80
2021/09/25 03:36:24;;;;;;;2.63;0.57;;;11.40;99.90;;;;;;4976831;28;20461;-80
2021/09/25 03:38:52;;;;;;;1.37;1.37;;;11.40;99.90;;;;;;4976887;28;20453;-80
2021/09/25 03:41:19;;;;;;;0.50;0.30;;;11.40;99.90;;;;;;4976278;28;20496;-80
2021/09/25 03:43:50;;;;;;;1.17;0.70;;;11.40;99.90;;;;;;4976663;28;20468;-80
2021/09/25 03:46:17;;;;;;;0.60;0.53;;;11.40;99.90;;;;;;4977268;28;20494;-80
2021/09/25 03:48:44;;;;;;;1.30;0.60;;;11.30;99.90;;;;;;4976614;28;20865;-80
2021/09/25 03:51:11;;;;;;;0.60;0.50;;;11.30;99.90;;;;;;4976746;28;20495;-80
2021/09/25 03:53:37;;;;;;;1.13;0.50;;;11.30;99.90;;;;;;4976520;28;20454;-80
2021/09/25 03:56:08;;;;;;;0.60;0.53;;;11.30;99.90;;;;;;4976452;28;20449;-80
2021/09/25 03:58:35;;;;;;;2.20;1.03;;;11.20;99.90;;;;;;4976311;28;20492;-80
2021/09/25 04:01:01;;;;;;;0.67;0.50;;;11.20;99.90;;;;;;4976245;28;20496;-80
2021/09/25 04:03:28;;;;;;;5.73;0.50;;;11.30;99.90;;;;;;4976324;28;20452;-80
2021/09/25 04:05:56;;;;;;;0.83;0.50;;;11.30;99.90;;;;;;4976259;28;20449;-80
2021/09/25 04:08:23;;;;;;;0.63;0.63;;;11.30;99.90;;;;;;4976021;28;20485;-80
2021/09/25 04:10:50;;;;;;;0.60;0.60;;;11.30;99.90;;;;;;4976300;28;20585;-80
2021/09/25 04:13:18;;;;;;;0.70;0.70;;;11.20;99.90;;;;;;4976161;28;20453;-80
2021/09/25 04:15:45;;;;;;;0.53;0.50;;;11.20;99.90;;;;;;4976116;28;20454;-80
2021/09/25 04:18:11;;;;;;;3.43;1.03;;;11.20;99.90;;;;;;4976101;28;20480;-80
2021/09/25 04:20:38;;;;;;;1.13;0.53;;;11.20;99.90;;;;;;4975906;28;20497;-80
2021/09/25 04:23:06;;;;;;;0.60;0.60;;;11.10;99.90;;;;;;4975986;28;20457;-80
2021/09/25 04:25:33;;;;;;;0.37;0.30;;;11.10;99.90;;;;;;4975932;28;20453;-79
2021/09/25 04:28:04;;;;;;;0.50;0.50;;;11.10;99.90;;;;;;4975883;28;20456;-79
2021/09/25 04:30:32;;;;;;;1.67;0.80;;;11.10;99.90;;;;;;4975850;28;20500;-80
2021/09/25 04:32:59;;;;;;;2.30;1.00;;;11.20;99.90;;;;;;4975499;28;21015;-80
2021/09/25 04:35:26;;;;;;;2.00;0.73;;;11.20;99.90;;;;;;4975689;28;20442;-80
2021/09/25 04:37:53;;;;;;;1.73;0.70;;;11.20;99.90;;;;;;4975709;28;20464;-80
2021/09/25 04:40:19;;;;;;;0.40;0.40;;;11.20;99.90;;;;;;4975468;28;20489;-80
2021/09/25 04:42:46;;;;;;;2.90;0.60;;;11.20;99.90;;;;;;4975314;28;20951;-80
2021/09/25 04:45:13;;;;;;;0.40;0.40;;;11.30;99.90;;;;;;4975523;28;20457;-80
2021/09/25 04:47:41;;;;;;;1.57;0.60;;;11.20;99.90;;;;;;4975503;28;20964;-80
2021/09/25 04:50:09;;;;;;;1.00;0.50;;;11.20;99.90;;;;;;4975413;28;20462;-80
2021/09/25 04:52:35;;;;;;;2.10;0.77;;;11.30;99.90;;;;;;4974947;28;20445;-80
2021/09/25 04:55:02;;;;;;;1.90;0.70;;;11.30;99.90;;;;;;4975403;28;20456;-80
2021/09/25 04:57:29;;;;;;;1.10;0.90;;;11.30;99.90;;;;;;4975039;28;20953;-79
2021/09/25 04:59:56;;;;;;;1.27;1.17;;;11.20;99.90;;;;;;4975222;28;20484;-80
2021/09/25 05:02:22;;;;;;;0.50;0.43;;;11.30;99.90;;;;;;4975290;28;20799;-80
2021/09/25 05:04:51;;;;;;;0.67;0.40;;;11.20;99.90;;;;;;4975271;28;20456;-80
2021/09/25 05:07:17;;;;;;;1.27;0.90;;;11.30;99.90;;;;;;4974800;28;20460;-80
2021/09/25 05:09:45;;;;;;;2.30;0.70;;;11.20;99.90;;;;;;4974538;28;20832;-80
2021/09/25 05:12:11;;;;;;;0.70;0.60;;;11.20;99.90;;;;;;4975061;28;20465;-80
2021/09/25 05:14:40;;;;;;;0.60;0.60;;;11.20;99.90;;;;;;4975027;28;20476;-80
2021/09/25 05:17:07;;;;;;;1.27;0.70;;;11.10;99.90;;;;;;4975107;28;20457;-80
2021/09/25 05:19:33;;;;;;;0.73;0.60;;;11.10;99.90;;;;;;4974946;28;20473;-80
2021/09/25 05:22:02;;;;;;;0.90;0.90;;;11.10;99.90;;;;;;4975328;28;20481;-80
2021/09/25 05:24:28;;;;;;;0.73;0.73;;;11.10;99.90;;;;;;4974920;28;20457;-79
2021/09/25 05:26:55;;;;;;;0.90;0.60;;;11.00;99.90;;;;;;4974572;28;20980;-80
2021/09/25 05:29:24;;;;;;;2.27;0.80;;;11.10;99.90;;;;;;4974538;28;20557;-79
2021/09/25 05:31:50;;;;;;;1.43;1.33;;;11.00;99.90;;;;;;4974558;28;20933;-80
2021/09/25 05:34:17;;;;;;;2.10;0.80;;;11.10;99.90;;;;;;4974561;28;20957;-80
2021/09/25 05:36:44;;;;;;;1.40;0.70;;;11.10;99.90;;;;;;4974752;28;20453;-80
2021/09/25 05:39:12;;;;;;;0.80;0.70;;;11.00;99.90;;;;;;4974378;28;20929;-80
2021/09/25 05:41:39;;;;;;;1.17;0.80;;;11.00;99.90;;;;;;4974394;28;20481;-80
2021/09/25 05:44:06;;;;;;;0.70;0.70;;;11.00;99.90;;;;;;4974667;28;20453;-79
2021/09/25 05:46:32;;;;;;;0.50;0.50;;;11.00;99.90;;;;;;4974636;28;20457;-79
2021/09/25 05:48:59;;;;;;;0.60;0.50;;;11.00;99.90;;;;;;4974269;28;20450;-80
2021/09/25 05:51:26;;;;;;;3.13;0.90;;;11.00;99.90;;;;;;4974572;28;20445;-79
2021/09/25 05:53:52;;;;;;;1.00;0.70;;;11.00;99.90;;;;;;4974612;28;20482;-80
2021/09/25 05:56:20;;;;;;;0.97;0.90;;;11.10;99.90;;;;;;4974202;28;20972;-80
2021/09/25 05:58:47;;;;;;;0.43;0.43;;;11.10;99.90;;;;;;4975094;28;20457;-80
2021/09/25 06:01:13;;;;;;;1.77;0.60;;;11.10;99.90;;;;;;4974430;28;20489;-80
2021/09/25 06:03:40;;;;;;;1.27;0.70;;;11.20;99.90;;;;;;4974922;28;20512;-80
2021/09/25 06:06:07;;;;;;;1.57;0.60;;;11.20;99.90;;;;;;4979259;28;20448;-80
2021/09/25 06:08:34;;;;;;;0.80;0.77;;;11.30;99.90;;;;;;4977950;28;20492;-79
2021/09/25 06:11:00;;;;;;;1.53;0.50;;;11.40;99.90;;;;;;4978511;28;20480;-79
2021/09/25 06:13:28;;;;;;;0.50;0.50;;;11.50;99.90;;;;;;4978063;28;20453;-79
2021/09/25 06:15:55;;;;;;;2.23;0.73;;;11.50;99.90;;;;;;4978275;28;20500;-79
2021/09/25 06:18:22;;;;;;;1.17;0.50;;;11.60;99.90;;;;;;4978277;28;20464;-80
2021/09/25 06:20:49;;;;;;;2.37;0.73;;;11.60;99.90;;;;;;4977854;28;20489;-80
2021/09/25 06:23:15;;;;;;;1.23;1.00;;;11.70;99.90;;;;;;4978201;28;20449;-79
2021/09/25 06:25:42;;;;;;;3.17;1.17;;;11.70;99.90;;;;;;4978083;28;20457;-80
2021/09/25 06:28:09;;;;;;;1.83;0.77;;;11.70;99.90;;;;;;4978605;28;20457;-80
2021/09/25 06:30:40;;;;;;;0.93;0.60;;;11.70;99.90;;;;;;4977984;28;20473;-80
2021/09/25 06:33:07;;;;;;;0.90;0.63;;;11.80;99.90;;;;;;4978331;28;20995;-80
2021/09/25 06:35:34;;;;;;;0.60;0.60;;;11.80;99.90;;;;;;4977945;28;20488;-80
2021/09/25 06:38:00;;;;;;;1.50;0.90;;;11.80;99.90;;;;;;4977571;28;20963;-80
2021/09/25 06:40:27;;;;;;;0.97;0.43;;;11.80;99.90;;;;;;4977697;28;20473;-80
2021/09/25 06:42:54;;;;;;;1.97;0.57;;;11.90;99.90;;;;;;4977810;28;20491;-80
2021/09/25 06:45:21;;;;;;;0.57;0.50;;;12.00;99.90;;;;;;4977723;28;20448;-80
2021/09/25 06:47:49;;;;;;;2.40;0.60;;;12.10;99.90;;;;;;4977337;28;20441;-80
2021/09/25 06:50:16;;;;;;;1.13;0.40;;;12.30;99.90;;;;;;4977567;28;20850;-80
2021/09/25 06:52:42;;;;;;;2.17;0.80;;;12.40;99.90;;;;;;4977293;28;20949;-80
2021/09/25 06:55:10;;;;;;;1.43;1.33;;;12.50;99.90;;;;;;4977567;28;20458;-80
2021/09/25 06:57:36;;;;;;;1.33;0.83;;;12.70;99.90;;;;;;4977530;28;20455;-80
2021/09/25 07:00:04;;;;;;;1.87;0.60;;;12.70;99.90;;;;;;4977442;28;20469;-80
2021/09/25 07:02:31;;;;;;;0.60;0.60;;;12.80;99.90;;;;;;4977344;28;20493;-80
2021/09/25 07:04:59;;;;;;;1.73;0.60;;;12.80;99.90;;;;;;4977365;28;20461;-80
2021/09/25 07:07:25;;;;;;;0.80;0.60;;;12.90;99.90;;;;;;4977309;28;20449;-80
2021/09/25 07:09:52;;;;;;;1.07;0.60;;;13.00;99.90;;;;;;4976430;28;20498;-80
2021/09/25 07:12:19;;;;;;;0.50;0.50;;;13.10;99.90;;;;;;4977417;28;20453;-79
2021/09/25 07:14:45;;;;;;;1.47;0.60;;;13.30;99.90;;;;;;4977216;28;20461;-80
2021/09/25 07:17:12;;;;;;;0.70;0.50;;;13.40;99.90;;;;;;4976450;28;20456;-80
2021/09/25 07:19:39;;;;;;;1.27;0.47;;;13.50;99.90;;;;;;4977035;28;20500;-80
2021/09/25 07:22:08;;;;;;;0.97;0.50;;;13.60;99.90;;;;;;4976736;28;20501;-80
2021/09/25 07:24:35;;;;;;;0.80;0.60;;;13.70;99.90;;;;;;4977109;28;20492;-80
2021/09/25 07:27:02;;;;;;;0.50;0.50;;;13.90;99.90;;;;;;4976999;28;20457;-80
2021/09/25 07:29:28;;;;;;;0.50;0.40;;;14.00;99.90;;;;;;4976875;28;20478;-81
2021/09/25 07:31:55;;;;;;;0.73;0.60;;;14.10;99.90;;;;;;4976613;28;20449;-80
2021/09/25 07:34:22;;;;;;;0.83;0.73;;;14.20;99.90;;;;;;4976895;28;20453;-80
2021/09/25 07:36:49;;;;;;;1.77;0.90;;;14.30;99.90;;;;;;4976551;28;20462;-80
2021/09/25 07:39:17;;;;;;;0.50;0.50;;;14.40;99.90;;;;;;4976695;28;20441;-82
2021/09/25 07:41:44;;;;;;;1.23;1.07;;;14.50;99.90;;;;;;4976734;28;20512;-81
2021/09/25 07:44:10;;;;;;;0.80;0.50;;;14.60;99.90;;;;;;4976711;28;20465;-82
2021/09/25 07:46:37;;;;;;;0.50;0.43;;;14.70;99.90;;;;;;4976608;28;20460;-81
2021/09/25 07:49:05;;;;;;;0.70;0.70;;;14.80;99.90;;;;;;4976517;28;20464;-81
2021/09/25 07:51:32;;;;;;;2.70;0.80;;;14.90;99.90;;;;;;4976252;28;20876;-82
2021/09/25 07:53:59;;;;;;;1.10;1.10;;;15.00;99.90;;;;;;4976839;28;20452;-81
2021/09/25 07:56:27;;;;;;;1.47;1.03;;;15.10;99.90;;;;;;4976456;28;20504;-82
2021/09/25 07:58:54;;;;;;;0.60;0.50;;;15.20;99.90;;;;;;4976431;28;20461;-82
2021/09/25 08:01:20;;;;;;;1.53;0.90;;;15.30;99.90;;;;;;4976185;28;20532;-81
2021/09/25 08:03:47;;;;;;;1.00;0.90;;;15.50;99.90;;;;;;4976418;28;20449;-82
2021/09/25 08:06:14;;;;;;;1.00;0.53;;;15.60;99.90;;;;;;4976000;28;20997;-82
2021/09/25 08:08:40;;;;;;;0.73;0.50;;;15.70;99.90;;;;;;4976018;28;20489;-82
2021/09/25 08:11:07;;;;;;;0.40;0.30;;;15.90;99.90;;;;;;4976095;28;20474;-82
2021/09/25 08:13:35;;;;;;;0.50;0.50;;;16.00;99.90;;;;;;4975969;28;20430;-82
2021/09/25 08:16:02;;;;;;;2.33;2.13;;;16.20;99.90;;;;;;4976164;28;20472;-81
2021/09/25 08:18:29;;;;;;;1.00;0.80;;;16.30;99.90;;;;;;4976075;28;20464;-82
2021/09/25 08:20:56;;;;;;;2.97;1.23;;;16.50;99.90;;;;;;4975883;28;20465;-82
2021/09/25 08:23:23;;;;;;;1.27;0.87;;;16.70;99.90;;;;;;4976053;28;20480;-82
2021/09/25 08:25:53;;;;;;;1.70;0.63;;;16.80;99.90;;;;;;4975937;28;20461;-83
2021/09/25 08:28:20;;;;;;;3.63;0.90;;;16.90;99.90;;;;;;4974965;28;20457;-83
2021/09/25 08:30:48;;;;;;;0.97;0.60;;;17.10;99.90;;;;;;4975740;28;20481;-83
2021/09/25 08:33:14;;;;;;;0.40;0.40;;;17.20;99.90;;;;;;4975828;28;20449;-83
2021/09/25 08:35:41;;;;;;;0.70;0.70;;;17.40;99.90;;;;;;4975699;28;20461;-83
2021/09/25 08:38:08;;;;;;;1.03;0.90;;;17.50;99.90;;;;;;4975675;28;20450;-83
2021/09/25 08:40:35;;;;;;;0.60;0.60;;;17.70;99.90;;;;;;4975581;28;20470;-83
2021/09/25 08:43:02;;;;;;;3.70;1.03;;;17.80;99.90;;;;;;4975242;28;20488;-83
2021/09/25 08:45:29;;;;;;;1.37;0.60;;;18.00;99.90;;;;;;4975277;28;20457;-83
2021/09/25 08:47:58;;;;;;;1.07;0.70;;;18.10;99.90;;;;;;4975545;28;20453;-83
2021/09/25 08:50:27;;;;;;;0.97;0.70;;;18.40;99.90;;;;;;4976168;28;20468;-90
2021/09/25 08:52:53;;;;;;;4.57;0.77;;;18.70;99.90;;;;;;4976392;28;20445;-91
2021/09/25 08:55:20;;;;;;;1.63;1.03;;;19.00;99.90;;;;;;4976120;28;20441;-90
2021/09/25 08:57:47;;;;;;;0.70;0.63;;;19.30;99.90;;;;;;4976670;28;20461;-91
2021/09/25 09:00:37;;;;;;;1.33;0.90;;;19.50;99.90;;;;;;4975675;28;20997;-82
2021/09/25 09:03:36;;;;;;;1.63;1.10;;;19.70;99.90;;;;;;4970472;28;20536;-82
2021/09/25 09:06:12;;;;;;;1.23;0.80;;;20.40;99.90;;;;;;4975479;28;20447;-82
2021/09/25 09:08:41;;;;;;;1.97;0.77;;;21.10;99.90;;;;;;4974743;28;20851;-83
2021/09/25 09:11:08;;;;;;;1.00;1.00;;;21.90;99.90;;;;;;4975055;28;20473;-83
2021/09/25 09:13:36;;;;;;;0.80;0.80;;;22.60;99.90;;;;;;4975163;28;20453;-83
2021/09/25 09:16:04;;;;;;;1.27;1.07;;;23.30;99.90;;;;;;4974887;28;20447;-84
2021/09/25 09:18:38;;;;;;;3.93;1.10;;;23.80;99.90;;;;;;4975820;28;20449;-83
2021/09/25 09:21:08;;;;;;;1.27;1.10;;;23.90;99.90;;;;;;4974942;28;20225;-83
2021/09/25 09:23:36;;;;;;;1.00;0.80;;;23.50;99.90;;;;;;4974964;28;20456;-83
2021/09/25 09:26:04;;;;;;;1.00;0.80;;;23.20;99.90;;;;;;4975408;28;20457;-90
2021/09/25 09:28:33;;;;;;;2.03;0.90;;;23.00;99.90;;;;;;4975202;28;20202;-87
2021/09/25 09:31:01;;;;;;;1.20;1.10;;;22.80;99.90;;;;;;4975205;28;20457;-87
2021/09/25 09:33:32;;;;;;;3.70;0.90;;;22.60;99.90;;;;;;4981104;28;20433;-90
2021/09/25 09:36:27;;;;;;;1.23;1.13;;;22.60;99.90;;;;;;4975857;28;20456;-92
2021/09/25 09:38:59;;;;;;;1.20;0.70;;;22.70;99.90;;;;;;4975110;28;20445;-91
2021/09/25 09:41:28;;;;;;;1.20;0.93;;;22.60;99.90;;;;;;4975721;28;20476;-91
2021/09/25 09:43:58;;;;;;;0.87;0.77;;;22.70;99.90;;;;;;4975708;28;20441;-91
2021/09/25 09:46:30;;;;;;;1.70;0.80;;;22.70;99.90;;;;;;4974757;28;20201;-88
2021/09/25 09:48:58;;;;;;;1.40;1.03;;;22.70;99.90;;;;;;4975410;28;20202;-88
2021/09/25 09:51:50;;;;;;;0.90;0.90;;;22.90;99.90;;;;;;4975273;28;20209;-83
2021/09/25 09:54:22;;;;;;;1.30;1.10;;;23.00;99.90;;;;;;4955635;28;20456;-83
2021/09/25 09:56:50;;;;;;;2.20;1.20;;;23.00;99.90;;;;;;4974787;28;20591;-91
2021/09/25 09:59:18;;;;;;;1.83;0.97;;;22.80;99.90;;;;;;4975272;28;20453;-92
2021/09/25 10:01:45;;;;;;;2.83;1.00;;;23.00;99.90;;;;;;4975238;28;20225;-91
2021/09/25 10:04:14;;;;;;;0.70;0.70;;;23.30;99.90;;;;;;4975663;28;20193;-91
2021/09/25 10:06:42;;;;;;;1.73;0.90;;;23.70;99.90;;;;;;4975514;28;20198;-91
2021/09/25 10:09:11;;;;;;;2.95;1.20;;;24.10;99.90;;;;;;4975039;28;20233;-92
2021/09/25 10:11:40;;;;;;;0.80;0.80;;;24.40;99.90;;;;;;4975279;28;20213;-88
2021/09/25 10:14:08;;;;;;;1.17;1.07;;;24.90;99.90;;;;;;4974608;28;20209;-87
2021/09/25 10:16:36;;;;;;;2.13;1.15;;;25.00;99.90;;;;;;4974772;28;20227;-88
2021/09/25 10:19:06;;;;;;;2.00;1.02;;;25.40;99.90;;;;;;4974283;28;20205;-83
2021/09/25 10:21:37;;;;;;;1.48;1.02;;;25.80;99.90;;;;;;4974183;28;20205;-83
2021/09/25 10:24:09;;;;;;;2.53;1.17;;;26.00;99.90;;;;;;4974372;28;20197;-83
2021/09/25 10:26:43;;;;;;;1.20;1.15;;;26.60;99.90;;;;;;4975380;28;20209;-83
2021/09/25 10:29:10;;;;;;;1.02;0.80;;;27.30;98.50;;;;;;4974261;28;20190;-83
2021/09/25 10:31:37;;;;;;;1.35;0.80;;;28.00;97.30;;;;;;4974214;28;20669;-83
2021/09/25 10:34:13;;;;;;;0.80;0.75;;;28.90;95.40;;;;;;4974230;28;20202;-83
2021/09/25 10:36:47;;;;;;;2.05;1.25;;;29.50;91.80;;;;;;4974189;28;20193;-83
2021/09/25 10:39:36;;;;;;;1.15;0.82;;;30.30;89.90;;;;;;4973830;28;20634;-83
2021/09/25 10:42:13;;;;;;;1.58;0.82;;;30.80;84.30;;;;;;4968829;28;20626;-84
2021/09/25 10:44:49;;;;;;;1.25;0.82;;;31.20;82.20;;;;;;4974836;28;20526;-83
2021/09/25 10:47:18;;;;;;;1.40;1.30;;;31.40;77.90;;;;;;4975419;28;20189;-87
2021/09/25 10:49:52;;;;;;;1.58;0.90;;;31.30;77.90;;;;;;4973962;28;20225;-87
2021/09/25 10:52:23;;;;;;;1.30;1.10;;;30.60;77.60;;;;;;4976972;28;20208;-87
2021/09/25 10:55:19;;;;;;;1.00;0.90;;;29.50;78.90;;;;;;4977737;28;20190;-83
2021/09/25 10:58:28;;;;;;;1.55;0.90;;;28.10;83.20;;;;;;4977263;28;20642;-83
2021/09/25 11:01:00;;;;;;;1.33;1.00;;;27.20;87.20;;;;;;4977465;28;20257;-84
2021/09/25 11:03:51;;;;;;;0.98;0.80;;;26.40;89.00;;;;;;4977503;28;20228;-87
2021/09/25 11:06:22;;;;;;;0.93;0.80;;;25.80;91.80;;;;;;4977250;28;20216;-87
2021/09/25 11:08:52;;;;;;;1.13;1.00;;;25.30;93.20;;;;;;4977460;28;20237;-87
2021/09/25 11:11:26;;;;;;;0.80;0.80;;;25.00;94.00;;;;;;4977862;28;20228;-86
2021/09/25 11:14:10;;;;;;;0.98;0.90;;;24.80;93.70;;;;;;4977198;28;20633;-87
2021/09/25 11:16:48;;;;;;;0.95;0.95;;;24.60;94.10;;;;;;4977503;28;20186;-87
2021/09/25 11:19:33;;;;;;;1.75;1.10;;;24.30;95.30;;;;;;4977310;28;20201;-88
2021/09/25 11:22:02;;;;;;;2.55;1.00;;;24.30;95.30;;;;;;4977055;28;20205;-87
2021/09/25 11:24:32;;;;;;;1.35;0.80;;;24.20;95.50;;;;;;4977129;28;20213;-86
2021/09/25 11:27:00;;;;;;;1.33;0.80;;;24.10;95.80;;;;;;4977166;28;20194;-87
2021/09/25 11:29:27;;;;;;;1.35;0.98;;;24.10;97.20;;;;;;4977105;28;20225;-83
2021/09/25 11:32:03;;;;;;;1.13;0.80;;;24.10;95.70;;;;;;4976841;28;20224;-83
2021/09/25 11:34:31;;;;;;;0.90;0.65;;;24.00;95.70;;;;;;4976632;28;20216;-83
2021/09/25 11:36:59;;;;;;;1.15;0.90;;;23.90;96.30;;;;;;4976837;28;20205;-83
2021/09/25 11:39:41;;;;;;;0.75;0.70;;;23.90;96.10;;;;;;4976853;28;20624;-83
2021/09/25 11:42:12;;;;;;;1.23;0.70;;;23.90;95.70;;;;;;4976919;28;20213;-83
2021/09/25 11:44:52;;;;;;;1.00;1.00;;;23.90;94.30;;;;;;4976591;28;20206;-87
2021/09/25 11:47:30;;;;;;;1.42;0.80;;;23.80;94.50;;;;;;4976986;28;20189;-86
2021/09/25 11:49:59;;;;;;;1.00;0.60;;;23.80;94.30;;;;;;4976758;28;20213;-85
2021/09/25 11:52:27;;;;;;;0.70;0.70;;;23.70;94.00;;;;;;4976717;28;20201;-87
2021/09/25 11:54:55;;;;;;;1.63;0.80;;;23.70;93.40;;;;;;4976763;28;20236;-86
2021/09/25 11:57:24;;;;;;;0.88;0.63;;;23.70;92.90;;;;;;4976209;28;20668;-85
2021/09/25 11:59:51;;;;;;;1.15;0.80;;;23.60;94.00;;;;;;4976277;28;20717;-86
2021/09/25 12:02:37;;;;;;;1.53;0.70;;;23.60;94.90;;;;;;4976034;28;20701;-86
2021/09/25 12:05:05;;;;;;;1.08;0.98;;;23.50;94.10;;;;;;4976519;28;20208;-86
2021/09/25 12:07:43;;;;;;;0.57;0.57;;;23.40;93.20;;;;;;4976375;28;20673;-87
2021/09/25 12:10:19;;;;;;;0.80;0.60;;;23.40;90.50;;;;;;4975914;28;20272;-83
2021/09/25 12:12:46;;;;;;;1.17;0.40;;;23.30;88.00;;;;;;4975916;28;20209;-83
2021/09/25 12:15:21;;;;;;;0.70;0.60;;;23.20;84.10;;;;;;4976283;28;20665;-91
2021/09/25 12:18:14;;;;;;;0.70;0.50;;;23.10;88.00;;;;;;4976918;28;20192;-90
2021/09/25 12:20:42;;;;;;;0.60;0.40;;;23.00;89.80;;;;;;4976232;28;20615;-86
2021/09/25 12:23:10;;;;;;;0.90;0.60;;;23.00;90.10;;;;;;4976105;28;20221;-86
2021/09/25 12:25:41;;;;;;;1.10;1.00;;;22.90;90.80;;;;;;4975918;28;20202;-87
2021/09/25 12:28:28;;;;;;;0.70;0.60;;;22.80;88.50;;;;;;4976314;28;20197;-87
2021/09/25 12:30:57;;;;;;;0.50;0.50;;;22.80;87.60;;;;;;4976138;28;20484;-84
2021/09/25 12:33:23;;;;;;;0.80;0.63;;;22.70;81.40;;;;;;4975551;28;20205;-84
2021/09/25 12:35:56;;;;;;;0.40;0.40;;;22.70;82.90;;;;;;4975543;28;20205;-83
2021/09/25 12:38:27;;;;;;;0.63;0.63;;;22.60;84.10;;;;;;4976537;28;20209;-91
2021/09/25 12:40:58;;;;;;;0.87;0.50;;;22.60;86.20;;;;;;4976716;28;20229;-90
2021/09/25 12:43:25;;;;;;;0.90;0.80;;;22.50;87.90;;;;;;4976558;28;20736;-84
2021/09/25 12:46:05;;;;;;;0.50;0.47;;;22.40;90.00;;;;;;4975599;28;20449;-83
2021/09/25 12:48:32;;;;;;;1.00;0.60;;;22.30;90.40;;;;;;4975601;28;20437;-83
2021/09/25 12:50:59;;;;;;;0.80;0.60;;;22.30;90.30;;;;;;4975438;28;20523;-83
2021/09/25 12:53:25;;;;;;;0.50;0.50;;;22.20;90.70;;;;;;4975152;28;20937;-83
2021/09/25 12:55:52;;;;;;;1.27;0.63;;;22.20;91.30;;;;;;4975412;28;20457;-84